Time;durP1;ratioP1;P1;durP2;ratioP2;P2;SDS_P1;SDS_P2;PMS_P1;PMS_P2;Temp;Humidity;BMP_temperature;BMP_pressure;BME280_temperature;BME280_humidity;BME280_pressure;Samples;Min_cycle;Max_cycle;Signal;HPM_P1;HPM_P2
2021/05/18 00:00:21;;;;;;;;;;;;;;;20.92;62.38;99522.88;1788478;79;20254;-63
2021/05/18 00:02:49;;;;;;;;;;;;;;;20.91;62.41;99524.05;1788876;78;20253;-64
2021/05/18 00:05:15;;;;;;;;;;;;;;;20.89;62.42;99520.24;1791419;78;20217;-63
2021/05/18 00:07:50;;;;;;;;;;;;;;;20.90;62.43;99524.62;1789200;78;20300;-64
2021/05/18 00:12:54;;;;;;;;;;;;;;;20.96;62.44;99515.52;1785379;78;20524;-64
2021/05/18 00:15:21;;;;;;;;;;;;;;;20.99;62.46;99521.72;1783475;78;21125;-64
2021/05/18 00:17:47;;;;;;;;;;;;;;;21.02;62.50;99516.05;1787342;79;21584;-64
2021/05/18 00:20:14;;;;;;;;;;;;;;;21.04;62.55;99509.61;1791063;78;20274;-64
2021/05/18 00:22:40;;;;;;;;;;;;;;;21.07;62.56;99510.28;1785406;78;20487;-63
2021/05/18 00:25:07;;;;;;;;;;;;;;;21.11;62.60;99513.95;1790915;79;20588;-64
2021/05/18 00:27:33;;;;;;;;;;;;;;;21.13;62.59;99513.84;1784117;78;21114;-63
2021/05/18 00:29:59;;;;;;;;;;;;;;;21.17;62.58;99520.87;1783776;78;20267;-64
2021/05/18 00:32:25;;;;;;;;;;;;;;;21.18;62.57;99514.98;1790685;78;20285;-62
2021/05/18 00:34:56;;;;;;;;;;;;;;;21.20;62.56;99517.41;1784119;79;20210;-62
2021/05/18 00:37:22;;;;;;;;;;;;;;;21.20;62.56;99519.59;1789467;79;20303;-63
2021/05/18 00:39:48;;;;;;;;;;;;;;;21.21;62.53;99512.11;1789344;78;21122;-62
2021/05/18 00:42:15;;;;;;;;;;;;;;;21.20;62.50;99507.15;1787112;78;20270;-63
2021/05/18 00:44:41;;;;;;;;;;;;;;;21.19;62.47;99505.53;1786322;79;20266;-63
2021/05/18 00:47:07;;;;;;;;;;;;;;;21.18;62.46;99506.68;1785697;78;20535;-62
2021/05/18 00:49:33;;;;;;;;;;;;;;;21.16;62.42;99509.02;1787770;79;20587;-62
2021/05/18 00:52:00;;;;;;;;;;;;;;;21.16;62.42;99498.52;1784980;79;21137;-63
2021/05/18 00:54:29;;;;;;;;;;;;;;;21.13;62.39;99501.39;1784005;78;20212;-63
2021/05/18 00:59:38;;;;;;;;;;;;;;;21.10;62.38;99495.16;1783634;78;20227;-62
2021/05/18 01:02:04;;;;;;;;;;;;;;;21.08;62.37;99495.30;1788519;78;20209;-62
2021/05/18 01:04:30;;;;;;;;;;;;;;;21.06;62.36;99503.13;1784082;78;21233;-62
2021/05/18 01:06:56;;;;;;;;;;;;;;;21.04;62.35;99499.93;1786517;78;20212;-62
2021/05/18 01:09:22;;;;;;;;;;;;;;;21.02;62.38;99497.50;1787710;78;20306;-62
2021/05/18 01:11:48;;;;;;;;;;;;;;;21.02;62.39;99507.76;1790750;79;20473;-63
2021/05/18 01:14:17;;;;;;;;;;;;;;;20.99;62.40;99512.04;1790644;79;20245;-62
2021/05/18 01:16:46;;;;;;;;;;;;;;;20.96;62.38;99489.25;1786619;78;21418;-62
2021/05/18 01:19:13;;;;;;;;;;;;;;;20.95;62.39;99496.73;1786703;79;20302;-62
2021/05/18 01:21:39;;;;;;;;;;;;;;;20.94;62.40;99490.16;1785707;78;20274;-62
2021/05/18 01:24:05;;;;;;;;;;;;;;;20.92;62.38;99486.36;1783735;78;20324;-62
2021/05/18 01:26:32;;;;;;;;;;;;;;;20.92;62.41;99510.43;1789066;78;20227;-62
2021/05/18 01:28:58;;;;;;;;;;;;;;;20.90;62.40;99514.14;1789776;79;21000;-62
2021/05/18 01:31:25;;;;;;;;;;;;;;;20.88;62.41;99509.52;1786850;78;20324;-62
2021/05/18 01:33:53;;;;;;;;;;;;;;;20.88;62.45;99492.94;1791038;78;20544;-62
2021/05/18 01:36:21;;;;;;;;;;;;;;;20.85;62.45;99493.65;1786137;78;20264;-62
2021/05/18 01:44:00;;;;;;;;;;;;;;;20.82;62.49;99499.89;1782134;79;20223;-62
2021/05/18 01:46:27;;;;;;;;;;;;;;;20.80;62.50;99501.61;1788281;78;20482;-63
2021/05/18 01:49:01;;;;;;;;;;;;;;;20.81;62.50;99503.80;1789358;78;20165;-63
2021/05/18 01:51:36;;;;;;;;;;;;;;;20.79;62.52;99499.98;1789785;78;20573;-63
2021/05/18 01:54:09;;;;;;;;;;;;;;;20.79;62.55;99508.28;1786884;78;20993;-63
2021/05/18 01:59:06;;;;;;;;;;;;;;;20.76;62.56;99519.23;1788417;78;20167;-62
2021/05/18 02:01:32;;;;;;;;;;;;;;;20.76;62.57;99518.66;1791430;78;20507;-63
2021/05/18 02:04:00;;;;;;;;;;;;;;;20.75;62.59;99518.43;1791158;78;20474;-62
2021/05/18 02:06:26;;;;;;;;;;;;;;;20.75;62.61;99532.25;1791299;78;21117;-62
2021/05/18 02:08:52;;;;;;;;;;;;;;;20.77;62.60;99531.91;1785181;79;20185;-62
2021/05/18 02:11:18;;;;;;;;;;;;;;;20.74;62.62;99538.95;1786829;78;20598;-63
2021/05/18 02:13:47;;;;;;;;;;;;;;;20.74;62.63;99547.82;1786529;78;20378;-63
2021/05/18 02:16:21;;;;;;;;;;;;;;;20.73;62.63;99538.72;1789388;78;20194;-63
2021/05/18 02:18:58;;;;;;;;;;;;;;;20.73;62.64;99553.92;1791500;78;20997;-63
2021/05/18 02:26:40;;;;;;;;;;;;;;;20.80;62.64;99564.38;1785898;78;20203;-62
2021/05/18 02:29:06;;;;;;;;;;;;;;;20.83;62.65;99555.41;1754920;79;20185;-61
2021/05/18 02:31:32;;;;;;;;;;;;;;;20.86;62.68;99568.52;1790126;78;21121;-61
2021/05/18 02:33:59;;;;;;;;;;;;;;;20.87;62.68;99561.27;1786549;78;20491;-62
2021/05/18 02:36:25;;;;;;;;;;;;;;;20.92;62.72;99569.30;1794211;78;20138;-62
2021/05/18 02:38:52;;;;;;;;;;;;;;;20.94;62.73;99571.16;1787219;78;21734;-61
2021/05/18 02:41:18;;;;;;;;;;;;;;;20.98;62.72;99574.02;1790559;78;20313;-62
2021/05/18 02:43:52;;;;;;;;;;;;;;;21.01;62.69;99580.80;1793507;78;21117;-62
2021/05/18 02:51:27;;;;;;;;;;;;;;;21.03;62.63;99575.73;1792115;78;20237;-63
2021/05/18 02:53:52;;;;;;;;;;;;;;;21.02;62.57;99581.03;1792144;78;20795;-62
2021/05/18 02:59:00;;;;;;;;;;;;;;;21.01;62.48;99591.28;1787170;78;20213;-61
2021/05/18 03:01:23;;;;;;;;;;;;;;;20.97;62.45;99588.99;1786324;79;20549;-62
2021/05/18 03:03:49;;;;;;;;;;;;;;;20.96;62.41;99587.41;1784817;79;20192;-61
2021/05/18 03:06:15;;;;;;;;;;;;;;;20.94;62.40;99586.94;1793413;79;20202;-62
2021/05/18 03:08:41;;;;;;;;;;;;;;;20.92;62.37;99591.42;1790521;79;21057;-62
2021/05/18 03:11:09;;;;;;;;;;;;;;;20.91;62.36;99602.84;1796208;79;20285;-62
2021/05/18 03:13:36;;;;;;;;;;;;;;;20.88;62.36;99598.80;1785935;79;20266;-62
2021/05/18 03:16:03;;;;;;;;;;;;;;;20.86;62.34;99596.98;1788678;79;20254;-62
2021/05/18 03:18:29;;;;;;;;;;;;;;;20.85;62.34;99596.74;1783574;79;20282;-62
2021/05/18 03:20:54;;;;;;;;;;;;;;;20.83;62.35;99610.13;1792828;79;21112;-62
2021/05/18 03:23:20;;;;;;;;;;;;;;;20.81;62.33;99609.65;1790089;79;20274;-62
2021/05/18 03:25:46;;;;;;;;;;;;;;;20.80;62.32;99600.31;1788782;79;20262;-62
2021/05/18 03:28:12;;;;;;;;;;;;;;;20.78;62.31;99598.48;1788327;79;20683;-62
2021/05/18 03:35:58;;;;;;;;;;;;;;;20.73;62.30;99586.28;1795559;79;21566;-63
2021/05/18 03:38:31;;;;;;;;;;;;;;;20.71;62.29;99571.42;1793462;79;20226;-63
2021/05/18 03:41:02;;;;;;;;;;;;;;;20.69;62.27;99583.41;1787600;79;20219;-63
2021/05/18 03:43:36;;;;;;;;;;;;;;;20.69;62.27;99568.78;1788535;79;20553;-62
2021/05/18 03:48:38;;;;;;;;;;;;;;;20.67;62.28;99585.70;1787024;79;20940;-62
2021/05/18 03:48:42;;;;;;;;;;;;;;;20.65;62.28;99590.78;1790810;79;20249;-62
2021/05/18 03:53:59;;;;;;;;;;;;;;;20.63;62.26;99605.52;1788999;79;20478;-62
2021/05/18 04:04:21;;;;;;;;;;;;;;;20.59;62.26;99599.64;1786919;78;20303;-62
2021/05/18 04:18:26;;;;;;;;;;;;;;;20.54;62.22;99598.52;1777748;79;20484;-62
2021/05/18 04:21:06;;;;;;;;;;;;;;;20.53;62.21;99611.52;1773410;78;20333;-60
2021/05/18 04:39:19;;;;;;;;;;;;;;;20.47;62.11;99624.75;1786898;78;20989;-62
2021/05/18 04:42:20;;;;;;;;;;;;;;;20.46;61.95;99626.47;1780202;78;20219;-61
2021/05/18 04:50:17;;;;;;;;;;;;;;;20.39;61.66;99618.77;1784382;77;20274;-62
2021/05/18 04:52:33;;;;;;;;;;;;;;;20.32;61.40;99628.20;1780481;78;21135;-62
2021/05/18 05:00:27;;;;;;;;;;;;;;;20.22;61.06;99628.61;1787075;77;20599;-62
2021/05/18 05:03:07;;;;;;;;;;;;;;;20.22;61.03;99627.80;1811550;77;20300;-62
2021/05/18 05:08:16;;;;;;;;;;;;;;;20.23;60.96;99631.61;1795903;77;20191;-63
2021/05/18 05:15:39;;;;;;;;;;;;;;;20.25;60.85;99616.06;1799868;77;20250;-62
2021/05/18 05:18:05;;;;;;;;;;;;;;;20.26;60.85;99657.16;1812172;77;21086;-63
2021/05/18 05:20:31;;;;;;;;;;;;;;;20.27;60.81;99617.92;1814934;77;20168;-62
2021/05/18 05:22:57;;;;;;;;;;;;;;;20.27;60.78;99611.82;1803942;77;20180;-64
2021/05/18 05:25:23;;;;;;;;;;;;;;;20.28;60.77;99617.59;1803193;77;20219;-62
2021/05/18 05:27:50;;;;;;;;;;;;;;;20.27;60.75;99600.77;1806918;77;20228;-63
2021/05/18 05:30:17;;;;;;;;;;;;;;;20.30;60.74;99611.73;1798032;77;20844;-64
2021/05/18 05:32:42;;;;;;;;;;;;;;;20.29;60.72;99609.54;1793990;77;20289;-64
2021/05/18 05:35:09;;;;;;;;;;;;;;;20.29;60.71;99608.70;1785248;77;20907;-63
2021/05/18 05:37:35;;;;;;;;;;;;;;;20.30;60.68;99617.25;1785537;77;20261;-64
2021/05/18 05:40:01;;;;;;;;;;;;;;;20.30;60.67;99617.25;1786093;77;20764;-63
2021/05/18 05:42:28;;;;;;;;;;;;;;;20.30;60.66;99613.11;1788847;77;23285;-63
2021/05/18 05:44:54;;;;;;;;;;;;;;;20.29;60.64;99610.92;1816614;77;20260;-64
2021/05/18 05:47:20;;;;;;;;;;;;;;;20.30;60.63;99616.69;1807735;77;20688;-64
2021/05/18 05:49:46;;;;;;;;;;;;;;;20.30;60.63;99629.68;1784858;77;20251;-64
2021/05/18 05:52:17;;;;;;;;;;;;;;;20.31;60.59;99610.59;1785702;77;20238;-63
2021/05/18 05:54:39;;;;;;;;;;;;;;;20.30;60.58;99616.69;1803268;77;21617;-63
2021/05/18 05:57:06;;;;;;;;;;;;;;;20.31;60.56;99621.06;1803975;77;20931;-63
2021/05/18 05:59:32;;;;;;;;;;;;;;;20.31;60.57;99620.25;1797984;77;20190;-63
2021/05/18 06:01:59;;;;;;;;;;;;;;;20.31;60.54;99627.16;1790315;77;20162;-63
2021/05/18 06:04:25;;;;;;;;;;;;;;;20.30;60.54;99622.20;1782459;77;20222;-63
2021/05/18 06:06:53;;;;;;;;;;;;;;;20.30;60.50;99613.11;1787846;77;21849;-64
2021/05/18 06:09:19;;;;;;;;;;;;;;;20.30;60.51;99618.06;1780976;77;20494;-62
2021/05/18 06:12:13;;;;;;;;;;;;;;;20.30;60.51;99622.20;1784757;77;20225;-62
2021/05/18 06:15:06;;;;;;;;;;;;;;;20.30;60.50;99624.97;1781673;78;20556;-63
2021/05/18 06:17:38;;;;;;;;;;;;;;;20.30;60.46;99623.59;1778524;77;20280;-63
2021/05/18 06:47:00;;;;;;;;;;;;;;;20.35;60.59;99617.84;1791904;78;20992;-63
2021/05/18 06:49:22;;;;;;;;;;;;;;;20.35;60.60;99641.89;1789872;78;20567;-63
2021/05/18 06:51:48;;;;;;;;;;;;;;;20.35;60.61;99629.46;1793352;78;20221;-63
2021/05/18 06:54:14;;;;;;;;;;;;;;;20.35;60.60;99623.94;1791981;78;20269;-63
2021/05/18 06:56:42;;;;;;;;;;;;;;;20.34;60.63;99631.98;1789774;78;20214;-63
2021/05/18 07:01:38;;;;;;;;;;;;;;;20.32;60.65;99620.49;1793351;78;20214;-63
2021/05/18 07:04:08;;;;;;;;;;;;;;;20.33;60.63;99638.66;1788762;78;20279;-63
2021/05/18 07:06:47;;;;;;;;;;;;;;;20.32;60.63;99631.54;1787292;78;20279;-63
2021/05/18 07:09:09;;;;;;;;;;;;;;;20.33;60.63;99630.37;1790601;78;20498;-62
2021/05/18 07:11:35;;;;;;;;;;;;;;;20.32;60.63;99621.30;1793706;78;21025;-62
2021/05/18 07:14:01;;;;;;;;;;;;;;;20.31;60.61;99627.97;1793373;78;20672;-62
2021/05/18 07:16:27;;;;;;;;;;;;;;;20.32;60.59;99632.92;1792860;78;20214;-62
2021/05/18 07:18:53;;;;;;;;;;;;;;;20.31;60.58;99640.39;1793839;78;20270;-62
2021/05/18 07:21:20;;;;;;;;;;;;;;;20.32;60.59;99642.59;1791111;78;20273;-63
2021/05/18 07:23:46;;;;;;;;;;;;;;;20.31;60.58;99631.30;1787341;77;23231;-63
2021/05/18 07:26:12;;;;;;;;;;;;;;;20.31;60.57;99635.45;1788744;77;20213;-63
2021/05/18 07:28:38;;;;;;;;;;;;;;;20.31;60.52;99636.25;1787727;77;20247;-63
2021/05/18 07:31:04;;;;;;;;;;;;;;;20.30;60.53;99627.73;1783964;77;20254;-63
2021/05/18 07:33:30;;;;;;;;;;;;;;;20.31;60.51;99640.97;1782363;77;20328;-63
2021/05/18 07:35:58;;;;;;;;;;;;;;;20.31;60.47;99629.92;1785570;77;21036;-63
2021/05/18 07:38:25;;;;;;;;;;;;;;;20.30;60.46;99638.78;1786270;77;20291;-63
2021/05/18 07:40:52;;;;;;;;;;;;;;;20.30;60.44;99626.92;1785181;77;20894;-63
2021/05/18 07:43:18;;;;;;;;;;;;;;;20.30;60.43;99633.25;1790721;77;21754;-63
2021/05/18 07:45:49;;;;;;;;;;;;;;;20.30;60.42;99661.45;1787624;77;20231;-63
2021/05/18 07:48:20;;;;;;;;;;;;;;;20.30;60.39;99643.49;1789821;77;23179;-63
2021/05/18 08:06:53;;;;;;;;;;;;;;;20.28;60.20;99649.92;1793992;78;20189;-62
2021/05/18 08:09:22;;;;;;;;;;;;;;;20.27;60.18;99657.97;1798623;78;20264;-62
2021/05/18 08:11:47;;;;;;;;;;;;;;;20.26;60.14;99664.06;1793766;78;20256;-63
2021/05/18 08:14:13;;;;;;;;;;;;;;;20.26;60.13;99658.54;1801430;78;21022;-63
2021/05/18 10:35:53;;;;;;;;;;;;;;;20.73;58.86;99652.05;1788701;78;20156;-63
2021/05/18 10:38:25;;;;;;;;;;;;;;;20.78;58.83;99640.76;1792838;79;20229;-63
2021/05/18 10:40:55;;;;;;;;;;;;;;;20.83;58.73;99687.52;1788011;78;20467;-63
2021/05/18 10:43:29;;;;;;;;;;;;;;;20.86;58.67;99646.73;1782142;78;20278;-63
2021/05/18 10:46:01;;;;;;;;;;;;;;;20.89;58.58;99644.66;1788833;78;20564;-63
2021/05/18 10:48:38;;;;;;;;;;;;;;;20.92;58.51;99636.23;1788985;78;20896;-63
2021/05/18 10:51:36;;;;;;;;;;;;;;;20.93;58.44;99640.04;1768822;78;20955;-63
2021/05/18 10:54:22;;;;;;;;;;;;;;;20.95;58.37;99632.22;1789015;78;20210;-62
2021/05/18 10:57:01;;;;;;;;;;;;;;;20.97;58.31;99643.72;1788129;78;20372;-62
2021/05/18 10:59:37;;;;;;;;;;;;;;;21.02;58.27;99641.87;1785986;78;21047;-62
2021/05/18 11:02:16;;;;;;;;;;;;;;;21.03;58.20;99621.36;1784666;79;20277;-63
2021/05/18 11:04:46;;;;;;;;;;;;;;;21.05;58.18;99618.47;1786242;78;20218;-62
2021/05/18 11:07:15;;;;;;;;;;;;;;;21.08;58.12;99622.52;1791263;78;20501;-62
2021/05/18 11:09:41;;;;;;;;;;;;;;;21.10;58.07;99632.63;1787491;78;20154;-62
2021/05/18 11:12:14;;;;;;;;;;;;;;;21.13;58.04;99619.54;1796132;78;21136;-62
2021/05/18 11:14:51;;;;;;;;;;;;;;;21.15;57.98;99625.52;1790472;78;20199;-62
2021/05/18 11:17:28;;;;;;;;;;;;;;;21.17;57.94;99630.94;1790278;78;20138;-62
2021/05/18 11:20:09;;;;;;;;;;;;;;;21.20;57.91;99619.17;1791495;78;20160;-61
2021/05/18 11:25:40;;;;;;;;;;;;;;;21.25;57.77;99616.17;1792123;78;20977;-63
2021/05/18 11:28:17;;;;;;;;;;;;;;;21.28;57.72;99619.61;1797059;78;20559;-62
2021/05/18 11:30:46;;;;;;;;;;;;;;;21.29;57.68;99614.88;1790540;78;20163;-62
2021/05/18 11:33:12;;;;;;;;;;;;;;;21.31;57.64;99609.21;1795336;78;20206;-62
2021/05/18 11:35:38;;;;;;;;;;;;;;;21.33;57.63;99618.55;1791633;78;20244;-62
2021/05/18 11:38:14;;;;;;;;;;;;;;;21.34;57.60;99605.73;1791764;78;20984;-62
2021/05/18 11:40:47;;;;;;;;;;;;;;;21.36;57.58;99631.10;1791771;78;20159;-62
2021/05/18 11:43:16;;;;;;;;;;;;;;;21.38;57.55;99615.55;1790904;78;20477;-62
2021/05/18 11:45:42;;;;;;;;;;;;;;;21.40;57.52;99609.06;1793587;78;20150;-63
2021/05/18 11:48:13;;;;;;;;;;;;;;;21.46;57.51;99622.09;1794337;78;20538;-63
2021/05/18 11:50:39;;;;;;;;;;;;;;;21.49;57.47;99629.67;1792496;78;20995;-63
2021/05/18 11:53:05;;;;;;;;;;;;;;;21.50;57.40;99616.88;1786769;78;20696;-63
2021/05/18 11:55:31;;;;;;;;;;;;;;;21.52;57.37;99633.11;1793476;78;20162;-63
2021/05/18 11:57:58;;;;;;;;;;;;;;;21.54;57.34;99641.31;1791350;78;20242;-63
2021/05/18 12:00:27;;;;;;;;;;;;;;;21.59;57.36;99629.19;1792241;78;20270;-63
2021/05/18 12:03:09;;;;;;;;;;;;;;;21.60;57.27;99611.43;1777842;78;21152;-63
2021/05/18 12:05:53;;;;;;;;;;;;;;;21.62;57.24;99607.71;1789336;80;20240;-63
2021/05/18 12:08:28;;;;;;;;;;;;;;;21.66;57.19;99611.38;1790187;80;20173;-63
2021/05/18 12:10:54;;;;;;;;;;;;;;;21.67;57.15;99608.27;1776357;80;20221;-62
2021/05/18 12:13:30;;;;;;;;;;;;;;;21.71;57.11;99618.05;1784068;80;20302;-62
2021/05/18 12:16:04;;;;;;;;;;;;;;;21.74;57.06;99627.84;1776209;80;20541;-62
2021/05/18 12:18:32;;;;;;;;;;;;;;;21.77;57.03;99627.70;1768849;80;20189;-62
2021/05/18 12:21:07;;;;;;;;;;;;;;;21.80;56.98;99629.20;1788793;79;20335;-62
2021/05/18 12:23:33;;;;;;;;;;;;;;;21.83;56.92;99610.48;1768918;80;20509;-62
2021/05/18 12:26:18;;;;;;;;;;;;;;;21.86;56.87;99609.77;1772217;80;20225;-62
2021/05/18 12:28:56;;;;;;;;;;;;;;;21.92;56.82;99630.29;1769750;80;21847;-62
2021/05/18 12:31:27;;;;;;;;;;;;;;;21.97;56.77;99648.06;1772979;80;20229;-62
2021/05/18 12:33:53;;;;;;;;;;;;;;;21.99;56.70;99617.46;1766387;80;20546;-62
2021/05/18 12:36:18;;;;;;;;;;;;;;;22.01;56.63;99632.34;1781671;80;21789;-62
2021/05/18 12:39:06;;;;;;;;;;;;;;;22.04;56.59;99644.09;1767095;80;20326;-62
2021/05/18 12:41:51;;;;;;;;;;;;;;;22.06;56.53;99622.40;1773589;80;21168;-62
2021/05/18 12:44:19;;;;;;;;;;;;;;;22.08;56.46;99651.92;1784520;80;20252;-63
2021/05/18 12:47:04;;;;;;;;;;;;;;;22.08;56.39;99630.56;1789154;80;20244;-62
2021/05/18 12:49:34;;;;;;;;;;;;;;;22.09;56.35;99634.95;1784497;80;20248;-62
2021/05/18 12:52:03;;;;;;;;;;;;;;;22.09;56.31;99650.77;1776060;80;20288;-61
2021/05/18 12:54:40;;;;;;;;;;;;;;;22.09;56.29;99642.45;1775912;79;21581;-62
2021/05/18 12:57:06;;;;;;;;;;;;;;;22.10;56.27;99633.80;1781873;80;20207;-63
2021/05/18 12:59:32;;;;;;;;;;;;;;;22.12;56.21;99650.05;1783403;80;20245;-62
2021/05/18 13:01:59;;;;;;;;;;;;;;;22.12;56.15;99655.58;1780259;79;20692;-62
2021/05/18 13:04:25;;;;;;;;;;;;;;;22.11;56.09;99631.81;1789959;78;20150;-62
2021/05/18 13:06:51;;;;;;;;;;;;;;;22.12;56.08;99648.09;1789038;78;21116;-63
2021/05/18 13:09:21;;;;;;;;;;;;;;;22.13;56.05;99633.66;1794809;78;20257;-63
2021/05/18 13:15:00;;;;;;;;;;;;;;;22.12;55.99;99630.66;1788135;78;20206;-63
2021/05/18 13:17:27;;;;;;;;;;;;;;;22.13;55.97;99649.70;1792517;79;20282;-63
2021/05/18 13:20:11;;;;;;;;;;;;;;;22.12;55.93;99642.55;1792852;78;21262;-63
2021/05/18 13:22:40;;;;;;;;;;;;;;;22.13;55.90;99664.94;1790696;78;20234;-63
2021/05/18 13:27:55;;;;;;;;;;;;;;;22.15;55.81;99636.28;1796675;78;20155;-63
2021/05/18 13:30:21;;;;;;;;;;;;;;;22.16;55.79;99642.05;1792765;78;20225;-63
2021/05/18 13:32:48;;;;;;;;;;;;;;;22.18;55.76;99654.17;1798207;78;21084;-63
2021/05/18 13:35:16;;;;;;;;;;;;;;;22.19;55.72;99650.25;1789217;78;20151;-63
2021/05/18 13:37:42;;;;;;;;;;;;;;;22.20;55.67;99652.65;1794370;78;20546;-63
2021/05/18 13:40:10;;;;;;;;;;;;;;;22.21;55.62;99659.80;1790408;78;20306;-63
2021/05/18 13:42:36;;;;;;;;;;;;;;;22.22;55.59;99657.84;1797807;78;20646;-63
2021/05/18 13:45:02;;;;;;;;;;;;;;;22.23;55.51;99657.50;1791045;78;21153;-63
2021/05/18 13:47:27;;;;;;;;;;;;;;;22.24;55.48;99681.25;1788675;78;20172;-63
2021/05/18 13:49:53;;;;;;;;;;;;;;;22.26;55.39;99660.94;1793027;78;20238;-63
2021/05/18 13:52:19;;;;;;;;;;;;;;;22.26;55.38;99673.98;1788088;78;20186;-63
2021/05/18 13:54:45;;;;;;;;;;;;;;;;;;1791989;78;20265;-64
2021/05/18 13:57:11;;;;;;;;;;;;;;;22.28;55.25;99665.52;1790049;78;21018;-63
2021/05/18 13:59:37;;;;;;;;;;;;;;;22.28;55.22;99686.88;1795528;78;20683;-63
2021/05/18 14:02:03;;;;;;;;;;;;;;;22.29;55.19;99682.95;1793470;78;20275;-63
2021/05/18 14:04:29;;;;;;;;;;;;;;;22.30;55.16;99686.77;1792812;78;20214;-62
2021/05/18 14:07:21;;;;;;;;;;;;;;;22.31;55.09;99675.11;1789216;78;20245;-63
2021/05/18 14:09:33;;;;;;;;;;;;;;;22.32;55.07;99697.48;1784275;78;23496;-63
2021/05/18 14:11:59;;;;;;;;;;;;;;;22.33;55.02;99681.89;1790964;78;20310;-63
2021/05/18 14:14:25;;;;;;;;;;;;;;;22.34;54.97;99670.23;1789637;78;20192;-62
2021/05/18 14:16:51;;;;;;;;;;;;;;;22.34;54.83;99682.70;1787348;78;20615;-62
2021/05/18 14:19:19;;;;;;;;;;;;;;;22.34;54.71;99663.30;1784984;78;20617;-63
2021/05/18 14:21:45;;;;;;;;;;;;;;;22.35;54.65;99675.20;1789658;78;21020;-63
2021/05/18 14:24:21;;;;;;;;;;;;;;;22.33;54.62;99681.89;1786376;78;20299;-63
2021/05/18 14:26:42;;;;;;;;;;;;;;;22.32;54.58;99685.81;1785328;78;20564;-63
2021/05/18 14:29:08;;;;;;;;;;;;;;;22.33;54.59;99686.63;1788016;78;20194;-63
2021/05/18 14:31:34;;;;;;;;;;;;;;;22.35;54.57;99693.20;1789079;78;20305;-63
2021/05/18 14:34:00;;;;;;;;;;;;;;;22.34;54.52;99686.86;1742442;79;21046;-62
2021/05/18 14:36:26;;;;;;;;;;;;;;;22.32;54.50;99694.70;1789219;78;20369;-63
2021/05/18 14:38:53;;;;;;;;;;;;;;;22.29;54.49;99682.95;1790292;78;20555;-63
2021/05/18 14:44:02;;;;;;;;;;;;;;;22.27;54.49;99685.30;1792054;78;20266;-63
2021/05/18 14:46:38;;;;;;;;;;;;;;;22.25;54.50;99686.22;1790165;78;20811;-63
2021/05/18 14:57:04;;;;;;;;;;;;;;;22.19;54.48;99689.03;1794138;78;20304;-62
2021/05/18 14:59:30;;;;;;;;;;;;;;;22.16;54.50;99684.99;1788450;78;21274;-63
2021/05/18 15:01:56;;;;;;;;;;;;;;;22.15;54.49;99694.45;1793469;78;20367;-63
2021/05/18 15:04:22;;;;;;;;;;;;;;;22.14;54.51;99686.52;1795492;78;20313;-63
2021/05/18 15:06:48;;;;;;;;;;;;;;;22.12;54.53;99688.25;1797666;78;20746;-63
2021/05/18 15:09:14;;;;;;;;;;;;;;;22.10;54.52;99664.84;1789451;78;20210;-63
2021/05/18 15:11:40;;;;;;;;;;;;;;;22.09;54.53;99684.00;1791655;78;21165;-63
2021/05/18 15:14:06;;;;;;;;;;;;;;;22.08;54.51;99721.98;1791686;78;20197;-63
2021/05/18 15:16:32;;;;;;;;;;;;;;;22.06;54.53;99693.84;1791263;78;20188;-63
2021/05/18 15:19:05;;;;;;;;;;;;;;;22.05;54.52;99676.98;1791202;78;20245;-63
2021/05/18 15:21:26;;;;;;;;;;;;;;;22.04;54.52;99699.48;1790197;78;20166;-63
2021/05/18 15:23:52;;;;;;;;;;;;;;;22.02;54.53;99697.67;1786468;78;23238;-64
2021/05/18 15:26:18;;;;;;;;;;;;;;;22.01;54.53;99700.20;1790475;78;20269;-64
2021/05/18 15:28:44;;;;;;;;;;;;;;;21.99;54.54;99690.85;1790955;78;20465;-63
2021/05/18 15:31:10;;;;;;;;;;;;;;;21.99;54.56;99691.42;1789438;78;20724;-63
2021/05/18 15:33:36;;;;;;;;;;;;;;;21.99;54.56;99703.31;1787633;78;20270;-63
2021/05/18 15:36:03;;;;;;;;;;;;;;;21.99;54.57;99699.73;1789651;78;23224;-63
2021/05/18 15:38:29;;;;;;;;;;;;;;;21.97;54.58;99689.03;1789523;78;20214;-63
2021/05/18 15:40:56;;;;;;;;;;;;;;;21.98;54.58;99704.47;1788991;78;20253;-63
2021/05/18 15:43:23;;;;;;;;;;;;;;;21.98;54.59;99701.70;1788406;78;20551;-64
2021/05/18 15:45:49;;;;;;;;;;;;;;;21.98;54.59;99708.62;1786075;78;20204;-63
2021/05/18 15:48:14;;;;;;;;;;;;;;;21.97;54.60;99695.15;1788877;78;21031;-63
2021/05/18 15:50:40;;;;;;;;;;;;;;;21.95;54.59;99712.11;1788193;78;20228;-64
2021/05/18 15:53:06;;;;;;;;;;;;;;;21.96;54.60;99726.19;1792106;78;20281;-63
2021/05/18 15:55:32;;;;;;;;;;;;;;;21.95;54.60;99725.14;1784961;78;20716;-63
2021/05/18 15:57:58;;;;;;;;;;;;;;;21.94;54.63;99745.11;1787417;78;20260;-64
2021/05/18 16:00:24;;;;;;;;;;;;;;;21.94;54.62;99734.63;1785150;78;21150;-64
2021/05/18 16:02:50;;;;;;;;;;;;;;;21.93;54.62;99739.94;1814480;77;20800;-63
2021/05/18 16:05:16;;;;;;;;;;;;;;;21.92;54.63;99728.59;1770065;79;20209;-63
2021/05/18 16:07:51;;;;;;;;;;;;;;;21.92;54.63;99734.97;1784374;78;20205;-63
2021/05/18 16:10:10;;;;;;;;;;;;;;;21.91;54.66;99732.52;1778475;78;20282;-64
2021/05/18 16:12:36;;;;;;;;;;;;;;;21.92;54.63;99738.28;1779149;78;21064;-63
2021/05/18 16:15:03;;;;;;;;;;;;;;;21.90;54.64;99752.47;1776080;78;20236;-62
2021/05/18 16:17:29;;;;;;;;;;;;;;;21.90;54.64;99742.00;1782607;78;20308;-63
2021/05/18 16:19:55;;;;;;;;;;;;;;;21.87;54.63;99738.77;1783236;78;20208;-63
2021/05/18 16:22:21;;;;;;;;;;;;;;;21.86;54.64;99753.76;1784503;78;20288;-62
2021/05/18 16:24:47;;;;;;;;;;;;;;;21.85;54.64;99752.14;1783136;78;21038;-63
2021/05/18 16:27:15;;;;;;;;;;;;;;;21.83;54.66;99754.47;1779437;79;20273;-63
2021/05/18 16:29:41;;;;;;;;;;;;;;;21.82;54.67;99747.89;1781359;78;20206;-63
2021/05/18 16:32:07;;;;;;;;;;;;;;;21.80;54.69;99765.45;1775845;78;21619;-63
2021/05/18 16:34:33;;;;;;;;;;;;;;;21.79;54.71;99763.25;1780532;79;20296;-63
2021/05/18 16:36:59;;;;;;;;;;;;;;;21.78;54.73;99746.98;1780461;78;23179;-63
2021/05/18 16:39:26;;;;;;;;;;;;;;;21.77;54.73;99763.36;1778320;78;20389;-63
2021/05/18 16:41:53;;;;;;;;;;;;;;;21.76;54.76;99759.81;1785629;79;20528;-63
2021/05/18 16:44:19;;;;;;;;;;;;;;;21.74;54.75;99764.87;1777427;78;20391;-63
2021/05/18 16:46:45;;;;;;;;;;;;;;;21.72;54.79;99767.20;1778991;79;20200;-63
2021/05/18 16:49:11;;;;;;;;;;;;;;;21.71;54.80;99761.44;1774818;78;21002;-64
2021/05/18 16:51:37;;;;;;;;;;;;;;;21.69;54.82;99768.45;1778383;78;20692;-64
2021/05/18 16:54:06;;;;;;;;;;;;;;;21.67;54.81;99766.05;1776372;79;20263;-63
2021/05/18 16:56:32;;;;;;;;;;;;;;;21.66;54.85;99762.24;1775827;78;20373;-64
2021/05/18 16:58:58;;;;;;;;;;;;;;;21.64;54.87;99761.20;1785402;78;20259;-64
2021/05/18 17:01:24;;;;;;;;;;;;;;;21.63;54.90;99772.64;1783766;78;21041;-64
2021/05/18 17:03:50;;;;;;;;;;;;;;;21.61;54.92;99767.44;1777818;78;20520;-64
2021/05/18 17:06:16;;;;;;;;;;;;;;;21.61;54.93;99787.39;1767806;80;20711;-64
2021/05/18 17:08:42;;;;;;;;;;;;;;;21.58;54.94;99777.84;1767487;80;20775;-64
2021/05/18 17:11:09;;;;;;;;;;;;;;;21.58;54.95;99769.53;1769315;80;20383;-63
2021/05/18 17:13:35;;;;;;;;;;;;;;;21.57;54.98;99781.75;1748095;80;21823;-63
2021/05/18 17:16:03;;;;;;;;;;;;;;;21.56;54.98;99777.36;1768862;80;20186;-63
2021/05/18 17:18:33;;;;;;;;;;;;;;;21.55;55.01;99777.16;1768321;80;20198;-63
2021/05/18 17:20:59;;;;;;;;;;;;;;;21.54;55.01;99779.69;1766257;80;20298;-63
2021/05/18 17:23:25;;;;;;;;;;;;;;;21.54;55.02;99778.30;1766326;80;20278;-64
2021/05/18 17:25:51;;;;;;;;;;;;;;;21.53;55.05;99778.64;1762888;80;20971;-65
2021/05/18 17:28:18;;;;;;;;;;;;;;;21.53;55.04;99774.48;1771492;80;20712;-62
2021/05/18 17:30:44;;;;;;;;;;;;;;;21.51;55.09;99788.70;1764600;80;20587;-63
2021/05/18 17:33:15;;;;;;;;;;;;;;;21.51;55.10;99769.90;1766031;80;20375;-64
2021/05/18 17:35:39;;;;;;;;;;;;;;;21.48;55.14;99790.75;1758289;80;20313;-62
2021/05/18 17:38:04;;;;;;;;;;;;;;;21.49;55.16;99798.48;1769434;80;21129;-63
2021/05/18 17:40:31;;;;;;;;;;;;;;;21.47;55.19;99798.84;1769965;80;20376;-63
2021/05/18 17:42:56;;;;;;;;;;;;;;;21.47;55.22;99806.34;1767389;80;20237;-63
2021/05/18 17:45:22;;;;;;;;;;;;;;;21.46;55.22;99796.42;1769785;80;21772;-64